POGODA: Poland

Lotnisko: Wroclaw Ii

METAR KOD: EPWR


METAR: EPWR 250500Z 12006KT 9999 BKN013 03/01 Q1023


BLOK
Pogoda METAR
250500Z
Dzien: 25, Godzina: 05:00 UTC.
12006KT
Wiatr z kierunku 120, o predkosci 11 km/h
9999
Widzialnosc pozioma ponad 10 km.
BKN013
5/8 - 7/8 pokrycia nieba, chmurami o podstawie: 390 metrow
03/01
Temperatura: powietrze 3°C, punkt rosy 1°C . Wilgotnosc wzgledna 33 %
Q1023
Cisnienie: 1023 hPa

Pogoda na innym lotnisku

Pogoda Gdansk-Rebiechowo WEATHER Poland  
Pogoda Katowice WEATHER Poland  
Pogoda Krakow WEATHER Poland  
Pogoda Poznan WEATHER Poland  
Pogoda Rzeszow-Jasionka WEATHER Poland  
Pogoda Szczecin WEATHER Poland  
Pogoda Warszawa-Okecie WEATHER Poland  
Pogoda Wroclaw Ii WEATHER Poland  

Pogoda w inny kraju

Strona startowa

(C) by GREGOR 2007
Ogłoszenia Towarzyskie